Time;durP1;ratioP1;P1;durP2;ratioP2;P2;SDS_P1;SDS_P2;PMS_P1;PMS_P2;Temp;Humidity;BMP_temperature;BMP_pressure;BME280_temperature;BME280_humidity;BME280_pressure;Samples;Min_cycle;Max_cycle;Signal;HPM_P1;HPM_P2
2023/12/11 00:01:35;;;;;;;11.00;4.90;;;;;;;-3.85;100.00;101148.19;105680;1251;71943;-56
2023/12/11 00:04:03;;;;;;;11.10;5.60;;;;;;;-3.82;100.00;101149.58;106047;1256;66926;-56
2023/12/11 00:06:31;;;;;;;11.40;5.30;;;;;;;-3.74;100.00;101149.60;105827;1252;72683;-58
2023/12/11 00:16:43;;;;;;;8.50;4.10;;;;;;;-3.74;100.00;101143.27;103236;1283;599956;-57
2023/12/11 00:19:11;;;;;;;9.10;5.00;;;;;;;-3.76;100.00;101143.55;104994;1268;59616;-57
2023/12/11 00:21:40;;;;;;;9.50;4.70;;;;;;;-3.76;100.00;101145.39;105032;1264;59279;-56
2023/12/11 00:24:08;;;;;;;9.60;5.40;;;;;;;-3.77;100.00;101142.39;105776;1256;72154;-55
2023/12/11 00:26:36;;;;;;;10.20;4.90;;;;;;;-3.74;100.00;101143.45;106013;1257;66862;-55
2023/12/11 00:29:04;;;;;;;8.10;4.20;;;;;;;-3.70;100.00;101141.06;105469;1256;72666;-55
2023/12/11 00:31:31;;;;;;;7.60;4.20;;;;;;;-3.69;100.00;101145.08;105776;1251;59224;-56
2023/12/11 00:33:59;;;;;;;8.90;4.00;;;;;;;-3.58;100.00;101141.90;106049;1253;59274;-55
2023/12/11 00:36:27;;;;;;;11.70;4.20;;;;;;;-3.59;100.00;101143.31;106014;1251;71064;-56
2023/12/11 00:38:55;;;;;;;10.80;5.20;;;;;;;-3.67;100.00;101142.30;106011;1254;66020;-56
2023/12/11 00:41:23;;;;;;;8.30;4.10;;;;;;;-3.70;100.00;101141.41;105836;1254;72675;-55
2023/12/11 00:43:51;;;;;;;11.00;4.80;;;;;;;-3.73;100.00;101139.52;106255;1253;59704;-55
2023/12/11 00:46:22;;;;;;;12.70;5.20;;;;;;;-3.75;100.00;101137.75;106140;1253;59609;-55
2023/12/11 00:48:50;;;;;;;;;;;;;;;-3.72;100.00;101138.92;106336;1251;71733;-56
2023/12/11 00:51:19;;;;;;;9.10;3.90;;;;;;;-3.70;100.00;101136.63;105913;1254;67408;-55
2023/12/11 00:53:47;;;;;;;8.60;3.80;;;;;;;-3.71;100.00;101131.59;105882;1252;72663;-55
2023/12/11 00:56:15;;;;;;;11.10;4.50;;;;;;;-3.72;100.00;101130.98;105945;1257;60894;-55
2023/12/11 00:58:43;;;;;;;7.90;4.50;;;;;;;-3.73;100.00;101126.93;106188;1252;59959;-55
2023/12/11 01:01:11;;;;;;;12.30;5.00;;;;;;;-3.73;100.00;101130.15;105932;1250;72435;-55
2023/12/11 01:03:39;;;;;;;11.50;5.40;;;;;;;-3.79;100.00;101126.02;105902;1251;65013;-54
2023/12/11 01:06:07;;;;;;;10.10;4.60;;;;;;;-3.81;100.00;101118.16;105954;1251;71420;-55
2023/12/11 01:08:39;;;;;;;8.70;4.10;;;;;;;-3.80;100.00;101114.37;105950;1255;59631;-55
2023/12/11 01:11:08;;;;;;;7.90;4.60;;;;;;;-3.73;100.00;101113.67;105921;1255;59998;-54
2023/12/11 01:13:37;;;;;;;7.20;3.80;;;;;;;-3.79;100.00;101110.38;105907;1253;73053;-55
2023/12/11 01:16:06;;;;;;;8.50;3.90;;;;;;;-3.80;100.00;101108.58;105998;1253;67491;-55
2023/12/11 01:18:34;;;;;;;13.70;4.90;;;;;;;-3.79;100.00;101098.19;106112;1256;71458;-58
2023/12/11 01:21:02;;;;;;;8.00;4.50;;;;;;;-3.84;100.00;101099.41;105630;1257;59712;-54
2023/12/11 01:23:30;;;;;;;8.60;4.50;;;;;;;-3.83;100.00;101099.88;105983;1251;60053;-55
2023/12/11 01:25:58;;;;;;;8.70;5.10;;;;;;;-3.76;100.00;101098.03;105904;1257;73034;-54
2023/12/11 01:28:26;;;;;;;8.10;4.20;;;;;;;-3.73;100.00;101097.73;105961;1264;66719;-54
2023/12/11 01:30:53;;;;;;;7.40;4.00;;;;;;;-3.73;100.00;101097.53;105885;1251;73201;-55
2023/12/11 01:33:21;;;;;;;9.20;4.30;;;;;;;-3.71;100.00;101094.41;105976;1254;59556;-55
2023/12/11 01:35:50;;;;;;;8.10;4.50;;;;;;;-3.68;100.00;101096.13;105877;1251;59691;-55
2023/12/11 01:38:18;;;;;;;7.80;4.10;;;;;;;-3.68;100.00;101091.18;105933;1251;73057;-55
2023/12/11 01:40:46;;;;;;;8.00;3.80;;;;;;;-3.67;100.00;101089.61;106120;1257;65991;-58
2023/12/11 01:43:15;;;;;;;11.80;5.60;;;;;;;-3.65;100.00;101091.08;105863;1254;73174;-54
2023/12/11 01:45:53;;;;;;;;;;;;;;;-3.64;100.00;101085.25;105768;1256;60916;-55
2023/12/11 01:48:21;;;;;;;7.70;3.60;;;;;;;-3.62;100.00;101080.94;105756;1254;60461;-55
2023/12/11 01:50:49;;;;;;;8.90;4.70;;;;;;;-3.59;100.00;101080.44;105752;1255;73519;-55
2023/12/11 01:53:16;;;;;;;8.00;3.80;;;;;;;-3.58;100.00;101079.91;105839;1255;66788;-57
2023/12/11 01:55:44;;;;;;;11.60;5.10;;;;;;;-3.58;100.00;101082.95;105956;1251;72662;-57
2023/12/11 01:58:12;;;;;;;8.20;3.70;;;;;;;-3.52;100.00;101081.30;105799;1256;59774;-55
2023/12/11 02:00:40;;;;;;;10.90;4.50;;;;;;;-3.48;100.00;101083.48;105983;1257;59525;-55
2023/12/11 02:03:09;;;;;;;8.30;4.60;;;;;;;-3.46;100.00;101079.63;105983;1254;73049;-56
2023/12/11 02:05:38;;;;;;;10.20;4.10;;;;;;;-3.41;100.00;101079.77;106070;1254;67025;-55
2023/12/11 02:08:06;;;;;;;8.50;3.80;;;;;;;-3.33;100.00;101080.88;105851;1251;71698;-56
2023/12/11 02:10:33;;;;;;;8.00;4.20;;;;;;;-3.32;100.00;101076.25;106009;1258;59620;-57
2023/12/11 02:13:02;;;;;;;8.70;3.90;;;;;;;-3.27;100.00;101072.80;105672;1267;59983;-55
2023/12/11 02:15:40;;;;;;;8.30;4.50;;;;;;;-3.21;100.00;101064.70;105878;1251;71832;-57
2023/12/11 02:18:08;;;;;;;13.00;5.30;;;;;;;-3.15;100.00;101063.02;105673;1251;65634;-56
2023/12/11 02:20:37;;;;;;;8.10;4.00;;;;;;;-3.13;100.00;101059.89;105911;1252;73224;-55
2023/12/11 02:30:52;;;;;;;7.90;3.90;;;;;;;-3.05;100.00;101062.19;102539;1293;600379;-57
2023/12/11 02:41:00;;;;;;;7.70;4.30;;;;;;;-2.99;100.00;101064.98;102447;1290;601073;-56
2023/12/11 02:43:28;;;;;;;6.70;3.90;;;;;;;-2.97;100.00;101065.19;104902;1264;60821;-59
2023/12/11 02:45:56;;;;;;;8.40;4.30;;;;;;;-2.97;100.00;101068.21;104930;1264;60080;-56
2023/12/11 02:48:24;;;;;;;7.60;4.30;;;;;;;-2.97;100.00;101061.45;104997;1264;71036;-55
2023/12/11 02:50:52;;;;;;;9.40;4.50;;;;;;;-3.00;100.00;101060.08;104992;1267;67051;-56
2023/12/11 02:53:19;;;;;;;7.90;4.40;;;;;;;-3.06;100.00;101061.21;105063;1267;72739;-56
2023/12/11 02:55:47;;;;;;;8.30;4.30;;;;;;;-3.03;100.00;101062.45;104950;1267;199899;-56
2023/12/11 02:58:15;;;;;;;9.70;4.20;;;;;;;-3.04;100.00;101062.16;105905;1252;59117;-56
2023/12/11 03:00:43;;;;;;;10.40;4.80;;;;;;;-3.08;100.00;101060.95;105913;1252;72229;-56
2023/12/11 03:03:11;;;;;;;8.80;4.70;;;;;;;-3.05;100.00;101056.08;105972;1257;66887;-56
2023/12/11 03:05:39;;;;;;;12.40;5.70;;;;;;;-3.06;100.00;101054.41;105936;1254;73098;-57
2023/12/11 03:08:07;;;;;;;9.10;4.90;;;;;;;-3.07;100.00;101048.88;105833;1254;60890;-58
2023/12/11 03:10:34;;;;;;;9.20;4.70;;;;;;;-3.03;100.00;101049.83;106003;1253;59614;-55
2023/12/11 03:13:02;;;;;;;12.90;5.00;;;;;;;-2.99;100.00;101041.64;106092;1252;73252;-57
2023/12/11 03:15:30;;;;;;;10.00;4.50;;;;;;;-2.96;100.00;101038.58;105971;1254;66933;-55
2023/12/11 03:17:59;;;;;;;8.00;4.40;;;;;;;-2.93;100.00;101039.14;106001;1252;72562;-57
2023/12/11 03:20:28;;;;;;;10.50;4.30;;;;;;;-2.91;100.00;101034.44;105874;1253;59692;-59
2023/12/11 03:22:56;;;;;;;8.40;4.40;;;;;;;-2.88;100.00;101039.41;106072;1253;59553;-56
2023/12/11 03:25:24;;;;;;;7.20;3.60;;;;;;;-2.83;100.00;101041.69;105772;1251;72021;-58
2023/12/11 03:27:51;;;;;;;8.70;4.20;;;;;;;-2.81;100.00;101042.95;105539;1252;66142;-55
2023/12/11 03:30:19;;;;;;;11.30;3.70;;;;;;;-2.81;100.00;101047.90;105994;1253;71712;-55
2023/12/11 03:40:34;;;;;;;6.50;4.00;;;;;;;-2.73;100.00;101051.21;102427;1295;599551;-56
2023/12/11 03:43:02;;;;;;;8.90;4.50;;;;;;;-2.70;100.00;101048.36;105009;1271;60876;-60
2023/12/11 03:45:29;;;;;;;8.50;3.70;;;;;;;-2.62;100.00;101047.42;104702;1270;59322;-57
2023/12/11 03:47:57;;;;;;;7.30;3.40;;;;;;;-2.51;100.00;101044.80;104875;1267;72288;-57
2023/12/11 03:50:25;;;;;;;10.70;3.90;;;;;;;-2.50;100.00;101039.65;104921;1266;64937;-57
2023/12/11 03:52:53;;;;;;;6.20;3.00;;;;;;;-2.49;100.00;101036.71;104917;1270;72697;-57
2023/12/11 03:55:21;;;;;;;6.80;3.50;;;;;;;-2.44;100.00;101035.95;105802;1256;221013;-60
2023/12/11 03:57:49;;;;;;;7.60;4.40;;;;;;;-2.40;100.00;101033.85;105605;1251;60041;-57
2023/12/11 04:00:17;;;;;;;10.30;4.50;;;;;;;-2.40;100.00;101030.81;105799;1251;72277;-57
2023/12/11 04:02:44;;;;;;;7.70;3.90;;;;;;;-2.43;100.00;101030.61;105971;1254;66913;-57
2023/12/11 04:05:13;;;;;;;7.00;3.60;;;;;;;-2.47;100.00;101031.30;105775;1256;72321;-59
2023/12/11 04:07:40;;;;;;;6.90;3.50;;;;;;;-2.48;100.00;101038.72;105468;1253;60991;-55
2023/12/11 04:10:09;;;;;;;6.60;3.40;;;;;;;-2.51;100.00;101042.79;105749;1251;60191;-55
2023/12/11 04:12:38;;;;;;;10.00;4.40;;;;;;;-2.55;100.00;101037.55;105841;1256;72214;-58
2023/12/11 04:15:07;;;;;;;7.50;3.60;;;;;;;-2.56;100.00;101035.41;105802;1256;65814;-56
2023/12/11 04:17:34;;;;;;;7.50;3.40;;;;;;;-2.55;100.00;101035.86;105871;1251;73036;-56
2023/12/11 04:20:04;;;;;;;6.70;3.40;;;;;;;-2.52;100.00;101033.11;105830;1256;59653;-57
2023/12/11 04:22:32;;;;;;;7.50;3.60;;;;;;;-2.52;100.00;101038.39;105724;1251;59950;-58
2023/12/11 04:25:00;;;;;;;6.20;3.70;;;;;;;-2.50;100.00;101041.69;105669;1256;73059;-57
2023/12/11 04:27:28;;;;;;;8.10;3.60;;;;;;;-2.50;100.00;101046.95;105437;1257;66913;-59
2023/12/11 04:29:56;;;;;;;8.00;3.70;;;;;;;-2.48;100.00;101042.96;105706;1256;71468;-57
2023/12/11 04:32:24;;;;;;;6.30;3.50;;;;;;;-2.49;100.00;101043.20;105858;1258;59692;-58
2023/12/11 04:34:52;;;;;;;9.10;3.40;;;;;;;-2.51;100.00;101047.52;105736;1251;59538;-57
2023/12/11 04:37:19;;;;;;;9.40;3.60;;;;;;;-2.49;100.00;101045.22;106025;1256;71783;-59
2023/12/11 04:39:47;;;;;;;7.30;4.00;;;;;;;-2.54;100.00;101047.38;105544;1256;66761;-56
2023/12/11 04:42:15;;;;;;;8.10;3.50;;;;;;;-2.56;100.00;101047.30;105794;1251;72677;-57
2023/12/11 04:44:43;;;;;;;9.20;4.10;;;;;;;-2.55;100.00;101045.02;105819;1251;59794;-57
2023/12/11 04:47:11;;;;;;;7.20;3.40;;;;;;;-2.57;100.00;101043.43;105551;1256;59525;-57
2023/12/11 04:49:41;;;;;;;10.00;4.80;;;;;;;-2.56;100.00;101039.14;105586;1256;73087;-57
2023/12/11 04:52:09;;;;;;;8.40;3.20;;;;;;;-2.52;100.00;101037.58;105703;1256;65643;-57
2023/12/11 04:54:37;;;;;;;7.20;3.70;;;;;;;-2.48;100.00;101032.40;105808;1251;72769;-57
2023/12/11 04:57:05;;;;;;;6.60;3.30;;;;;;;-2.44;100.00;101036.14;105954;1256;59652;-58
2023/12/11 04:59:33;;;;;;;8.00;3.20;;;;;;;-2.40;100.00;101034.53;105463;1251;59665;-58
2023/12/11 05:02:00;;;;;;;9.40;4.20;;;;;;;-2.37;100.00;101041.02;105810;1252;73105;-57
2023/12/11 05:04:28;;;;;;;7.10;4.00;;;;;;;-2.39;100.00;101040.95;105723;1252;64901;-57
2023/12/11 05:06:56;;;;;;;8.80;4.10;;;;;;;-2.41;100.00;101039.04;105729;1256;71367;-57
2023/12/11 05:09:24;;;;;;;7.10;3.60;;;;;;;-2.46;100.00;101041.00;105861;1256;59548;-57
2023/12/11 05:11:52;;;;;;;7.00;3.40;;;;;;;-2.50;100.00;101041.88;105775;1251;59525;-57
2023/12/11 05:14:20;;;;;;;9.30;3.90;;;;;;;-2.50;100.00;101041.20;105761;1251;71865;-57
2023/12/11 05:16:47;;;;;;;8.30;3.60;;;;;;;-2.46;100.00;101043.35;105550;1251;65741;-57
2023/12/11 05:19:15;;;;;;;12.50;3.90;;;;;;;-2.43;100.00;101042.17;105777;1251;72835;-58
2023/12/11 05:21:46;;;;;;;10.50;4.20;;;;;;;-2.42;100.00;101041.45;105608;1251;59800;-57
2023/12/11 05:24:14;;;;;;;9.60;5.20;;;;;;;-2.37;100.00;101040.35;105768;1251;60136;-57
2023/12/11 05:26:42;;;;;;;8.90;4.60;;;;;;;-2.39;100.00;101035.83;105828;1256;73188;-57
2023/12/11 05:29:10;;;;;;;10.30;4.80;;;;;;;-2.37;100.00;101035.08;105918;1253;65631;-58
2023/12/11 05:31:38;;;;;;;9.00;3.90;;;;;;;-2.34;100.00;101033.71;105787;1253;72568;-57
2023/12/11 05:34:06;;;;;;;7.20;4.20;;;;;;;-2.32;100.00;101031.92;105668;1252;60948;-57
2023/12/11 05:36:34;;;;;;;8.60;4.10;;;;;;;-2.36;100.00;101031.76;105827;1251;60062;-58
2023/12/11 05:39:02;;;;;;;11.40;4.80;;;;;;;-2.34;100.00;101036.94;105783;1251;73535;-58
2023/12/11 05:41:29;;;;;;;10.50;4.20;;;;;;;-2.33;100.00;101037.73;105503;1251;65446;-58
2023/12/11 05:43:59;;;;;;;9.80;3.90;;;;;;;-2.31;100.00;101038.81;105727;1256;72578;-57
2023/12/11 05:54:12;;;;;;;9.20;4.40;;;;;;;-2.19;100.00;101031.23;102582;1290;601509;-56
2023/12/11 05:56:40;;;;;;;9.60;3.40;;;;;;;-2.24;100.00;101032.65;105061;1269;59447;-60
2023/12/11 05:59:08;;;;;;;8.90;3.60;;;;;;;-2.19;100.00;101025.23;104667;1269;59330;-56
2023/12/11 06:01:36;;;;;;;9.80;4.10;;;;;;;-2.07;100.00;101025.48;104946;1268;72664;-56
2023/12/11 06:04:04;;;;;;;9.60;4.60;;;;;;;-2.20;100.00;101023.91;104989;1270;66276;-57
2023/12/11 06:06:32;;;;;;;9.40;3.50;;;;;;;-2.28;100.00;101020.79;105159;1264;72700;-57
2023/12/11 06:09:00;;;;;;;8.90;3.70;;;;;;;-2.30;100.00;101018.16;105095;1263;198346;-56
2023/12/11 06:11:28;;;;;;;8.70;3.90;;;;;;;-2.31;100.00;101020.44;105349;1259;60028;-57
2023/12/11 06:13:55;;;;;;;6.20;3.30;;;;;;;-2.30;100.00;101018.52;104994;1263;70942;-57
2023/12/11 06:16:23;;;;;;;8.90;3.90;;;;;;;-2.30;100.00;101021.39;105712;1263;66938;-57
2023/12/11 06:18:51;;;;;;;10.90;4.40;;;;;;;-2.30;100.00;101030.10;105224;1265;71668;-57
2023/12/11 06:21:23;;;;;;;8.00;4.10;;;;;;;-2.28;100.00;101032.88;105388;1272;59685;-57
2023/12/11 06:23:51;;;;;;;8.60;3.60;;;;;;;-2.28;100.00;101037.63;105309;1258;59924;-58
2023/12/11 06:26:28;;;;;;;6.90;3.20;;;;;;;-2.28;100.00;101037.28;105321;1262;73061;-58
2023/12/11 06:28:57;;;;;;;5.90;3.40;;;;;;;-2.29;100.00;101034.10;105214;1264;68083;-58
2023/12/11 06:31:29;;;;;;;7.70;3.80;;;;;;;-2.30;100.00;101033.34;105442;1264;71417;-58
2023/12/11 06:33:57;;;;;;;8.60;3.70;;;;;;;-2.26;100.00;101024.77;105342;1264;61066;-60
2023/12/11 06:36:28;;;;;;;7.90;4.60;;;;;;;-2.22;100.00;101026.91;105790;1262;60651;-57
2023/12/11 06:38:56;;;;;;;7.70;3.80;;;;;;;-2.19;100.00;101022.72;105343;1260;71831;-56
2023/12/11 06:41:24;;;;;;;9.10;4.50;;;;;;;-2.13;100.00;101025.48;105227;1262;65647;-57
2023/12/11 06:43:53;;;;;;;9.70;5.10;;;;;;;-2.10;100.00;101026.34;105635;1254;70425;-56
2023/12/11 06:46:21;;;;;;;10.30;4.20;;;;;;;-2.08;100.00;101032.46;105609;1260;60263;-56
2023/12/11 06:48:48;;;;;;;7.40;3.50;;;;;;;-2.03;100.00;101041.77;105581;1260;59599;-58
2023/12/11 06:51:16;;;;;;;7.70;3.90;;;;;;;-2.04;100.00;101050.14;105482;1260;73078;-58
2023/12/11 06:53:44;;;;;;;7.60;3.20;;;;;;;-2.04;100.00;101055.95;106132;1259;66962;-59
2023/12/11 06:56:19;;;;;;;7.70;3.50;;;;;;;-2.05;100.00;101053.31;105377;1260;72503;-60
2023/12/11 06:58:46;;;;;;;6.00;3.10;;;;;;;-2.07;100.00;101054.79;105689;1255;61724;-59
2023/12/11 07:01:15;;;;;;;7.00;3.80;;;;;;;-2.05;100.00;101058.73;105670;1260;59742;-56
2023/12/11 07:03:48;;;;;;;9.70;3.90;;;;;;;-2.03;100.00;101065.45;105551;1260;73052;-56
2023/12/11 07:06:19;;;;;;;9.20;4.50;;;;;;;-2.03;100.00;101066.83;105616;1259;65973;-60
2023/12/11 07:08:46;;;;;;;10.20;3.50;;;;;;;-2.01;100.00;101062.79;105379;1259;72380;-57
2023/12/11 07:11:14;;;;;;;9.40;3.80;;;;;;;-2.02;100.00;101061.48;105738;1261;60851;-56
2023/12/11 07:13:42;;;;;;;9.00;3.60;;;;;;;-2.03;100.00;101061.37;105508;1254;59769;-56
2023/12/11 07:16:10;;;;;;;7.10;3.50;;;;;;;-1.99;100.00;101062.52;105954;1255;72052;-57
2023/12/11 07:18:38;;;;;;;7.70;3.70;;;;;;;-2.00;100.00;101062.02;105610;1254;67481;-57
2023/12/11 07:21:09;;;;;;;14.70;7.90;;;;;;;-1.96;100.00;101062.86;105529;1260;71413;-57
2023/12/11 07:23:37;;;;;;;21.70;12.00;;;;;;;-1.95;100.00;101063.45;105606;1260;60900;-57
2023/12/11 07:26:09;;;;;;;25.10;13.00;;;;;;;-1.92;100.00;101060.23;105594;1260;59547;-62
2023/12/11 07:28:38;;;;;;;20.20;12.80;;;;;;;-1.91;100.00;101062.41;105408;1256;73020;-57
2023/12/11 07:31:06;;;;;;;16.90;9.80;;;;;;;-1.92;100.00;101063.17;105642;1254;66053;-56
2023/12/11 07:33:34;;;;;;;14.00;7.20;;;;;;;-1.92;100.00;101053.27;105587;1261;71179;-57
2023/12/11 07:36:03;;;;;;;18.80;8.80;;;;;;;-1.92;100.00;101044.44;105702;1256;59956;-59
2023/12/11 07:38:31;;;;;;;17.50;8.70;;;;;;;-1.94;100.00;101044.69;105459;1256;60053;-56
2023/12/11 07:40:59;;;;;;;11.60;6.90;;;;;;;-1.93;100.00;101044.45;105511;1257;73095;-56
2023/12/11 07:43:29;;;;;;;9.70;5.60;;;;;;;-1.90;100.00;101040.05;105466;1259;67315;-57
2023/12/11 07:45:57;;;;;;;14.00;7.90;;;;;;;-1.90;100.00;101034.78;105580;1261;71107;-59
2023/12/11 07:48:26;;;;;;;21.40;12.00;;;;;;;-1.90;100.00;101030.83;105418;1260;59657;-58
2023/12/11 07:50:54;;;;;;;23.10;11.80;;;;;;;-1.90;100.00;101022.70;105691;1255;60019;-57
2023/12/11 07:53:22;;;;;;;22.10;11.40;;;;;;;-1.90;100.00;101027.59;105717;1259;73029;-56
2023/12/11 07:55:50;;;;;;;18.70;10.20;;;;;;;-1.87;100.00;101024.73;105696;1257;66955;-58
2023/12/11 07:58:18;;;;;;;10.80;6.50;;;;;;;-1.81;100.00;101025.23;105559;1254;72758;-57
2023/12/11 08:00:46;;;;;;;13.60;7.50;;;;;;;-1.79;100.00;101019.14;105615;1260;60885;-58
2023/12/11 08:03:14;;;;;;;11.00;5.80;;;;;;;-1.73;100.00;101018.12;105210;1254;60148;-58
2023/12/11 08:05:42;;;;;;;13.70;5.90;;;;;;;-1.65;100.00;101016.35;105280;1260;71650;-58
2023/12/11 08:08:10;;;;;;;11.50;6.10;;;;;;;-1.62;100.00;101017.34;105240;1259;65673;-58
2023/12/11 08:10:37;;;;;;;18.00;8.10;;;;;;;-1.61;100.00;101018.64;105342;1254;73356;-58
2023/12/11 08:13:05;;;;;;;13.10;6.40;;;;;;;-1.62;100.00;101016.19;105639;1268;63620;-57
2023/12/11 08:15:36;;;;;;;10.20;5.20;;;;;;;-1.61;100.00;101018.85;105757;1254;63275;-57
2023/12/11 08:18:04;;;;;;;10.60;5.30;;;;;;;-1.58;100.00;101011.17;105396;1261;75432;-58
2023/12/11 08:20:32;;;;;;;11.70;6.70;;;;;;;-1.56;100.00;101008.66;105561;1260;65801;-57
2023/12/11 08:22:59;;;;;;;15.90;7.60;;;;;;;-1.54;100.00;101008.24;105531;1254;72707;-57
2023/12/11 08:25:27;;;;;;;15.30;7.70;;;;;;;-1.50;100.00;101008.52;105721;1260;59668;-58
2023/12/11 08:27:55;;;;;;;16.90;8.80;;;;;;;-1.47;100.00;101015.16;105489;1260;59992;-57
2023/12/11 08:30:23;;;;;;;27.00;14.50;;;;;;;-1.46;100.00;101018.68;105641;1254;72083;-57
2023/12/11 08:32:51;;;;;;;13.70;8.20;;;;;;;-1.46;100.00;101013.73;105628;1260;69399;-57
2023/12/11 08:35:19;;;;;;;20.10;7.30;;;;;;;-1.46;100.00;101011.70;105528;1254;75217;-59
2023/12/11 08:37:47;;;;;;;17.30;9.30;;;;;;;-1.47;100.00;101015.68;105520;1260;60291;-60
2023/12/11 08:40:15;;;;;;;56.70;28.50;;;;;;;-1.49;100.00;101009.79;105450;1254;59676;-59
2023/12/11 08:42:43;;;;;;;15.60;9.60;;;;;;;-1.45;100.00;101007.21;105635;1259;73044;-60
2023/12/11 08:45:11;;;;;;;27.00;12.50;;;;;;;-1.42;100.00;101005.66;105628;1260;66901;-59
2023/12/11 08:47:41;;;;;;;18.10;8.40;;;;;;;-1.35;100.00;101003.56;105718;1254;71259;-59
2023/12/11 08:50:11;;;;;;;15.20;8.30;;;;;;;-1.31;100.00;100999.42;105564;1254;60750;-59
2023/12/11 08:52:41;;;;;;;13.70;7.50;;;;;;;-1.30;100.00;100989.12;106015;1259;63579;-59
2023/12/11 08:55:09;;;;;;;16.90;7.90;;;;;;;-1.30;100.00;100981.60;105541;1259;72131;-60
2023/12/11 08:57:37;;;;;;;19.90;7.70;;;;;;;-1.27;100.00;100985.51;105738;1255;66905;-63
2023/12/11 09:00:05;;;;;;;16.90;8.80;;;;;;;-1.23;100.00;100978.48;105470;1257;71895;-60
2023/12/11 09:02:33;;;;;;;20.00;11.30;;;;;;;-1.17;100.00;100973.38;105429;1260;60909;-60
2023/12/11 09:05:01;;;;;;;18.10;11.20;;;;;;;-1.14;100.00;100973.34;105581;1254;60071;-59
2023/12/11 09:07:29;;;;;;;14.80;8.90;;;;;;;-1.13;100.00;100973.31;105574;1256;74961;-62
2023/12/11 09:09:58;;;;;;;16.80;9.10;;;;;;;-1.10;100.00;100970.40;105634;1254;67019;-59
2023/12/11 09:12:25;;;;;;;20.60;11.50;;;;;;;-1.08;100.00;100965.02;105591;1257;75679;-58
2023/12/11 09:15:00;;;;;;;15.40;8.90;;;;;;;-1.04;100.00;100965.92;105453;1261;59736;-61
2023/12/11 09:17:28;;;;;;;16.20;7.40;;;;;;;-0.99;100.00;100968.03;105681;1254;60030;-61
2023/12/11 09:19:58;;;;;;;13.50;6.90;;;;;;;-1.00;100.00;100969.48;105544;1254;73468;-61
2023/12/11 09:22:25;;;;;;;17.50;8.80;;;;;;;-0.99;100.00;100968.88;105596;1254;65833;-62
2023/12/11 09:24:53;;;;;;;19.00;8.90;;;;;;;-0.95;100.00;100965.41;105645;1260;75219;-61
2023/12/11 09:27:21;;;;;;;12.80;6.60;;;;;;;-0.95;100.00;100966.41;105353;1254;60986;-59
2023/12/11 09:29:49;;;;;;;18.30;7.90;;;;;;;-0.97;100.00;100964.17;105508;1254;62506;-61
2023/12/11 09:32:17;;;;;;;14.30;6.50;;;;;;;-0.99;100.00;100959.65;105542;1259;76376;-59
2023/12/11 09:34:45;;;;;;;14.00;6.00;;;;;;;-0.94;100.00;100960.59;105618;1259;70078;-59
2023/12/11 09:37:15;;;;;;;13.60;6.50;;;;;;;-0.95;100.00;100958.40;105611;1261;75247;-61
2023/12/11 09:39:43;;;;;;;17.90;7.70;;;;;;;-1.00;100.00;100953.77;105615;1254;59598;-60
2023/12/11 09:42:11;;;;;;;16.30;7.60;;;;;;;-0.98;100.00;100955.70;105603;1254;59653;-61
2023/12/11 09:44:46;;;;;;;16.80;8.90;;;;;;;-0.94;100.00;100955.11;105740;1257;76902;-59
2023/12/11 09:47:26;;;;;;;12.30;6.80;;;;;;;-0.91;100.00;100950.67;105856;1256;66965;-60
2023/12/11 09:49:54;;;;;;;16.90;10.00;;;;;;;-0.92;100.00;100952.09;106038;1256;74523;-61
2023/12/11 09:52:22;;;;;;;15.10;8.90;;;;;;;-0.91;100.00;100950.17;105913;1257;60830;-60
2023/12/11 09:54:50;;;;;;;13.40;8.30;;;;;;;-0.86;100.00;100948.48;105995;1251;60043;-64
2023/12/11 09:57:18;;;;;;;13.10;7.40;;;;;;;-0.84;100.00;100947.48;105967;1251;74792;-60
2023/12/11 09:59:46;;;;;;;11.90;7.60;;;;;;;-0.81;100.00;100948.19;105729;1251;67118;-61
2023/12/11 10:02:15;;;;;;;11.80;8.00;;;;;;;-0.79;100.00;100943.60;105850;1251;72681;-60
2023/12/11 10:05:02;;;;;;;11.70;6.70;;;;;;;-0.76;100.00;100944.80;105899;1251;60978;-60
2023/12/11 10:07:32;;;;;;;10.50;6.50;;;;;;;-0.75;100.00;100947.64;106114;1252;60322;-62
2023/12/11 10:10:30;;;;;;;15.90;8.60;;;;;;;-0.71;100.00;100941.27;105810;1251;72634;-62
2023/12/11 10:12:58;;;;;;;22.00;14.40;;;;;;;-0.67;100.00;100938.61;105993;1251;66957;-62
2023/12/11 10:15:33;;;;;;;12.80;7.50;;;;;;;-0.58;100.00;100937.73;106021;1251;75187;-61
2023/12/11 10:18:09;;;;;;;10.50;7.00;;;;;;;-0.50;100.00;100932.08;105880;1251;60939;-61
2023/12/11 10:20:39;;;;;;;11.40;5.80;;;;;;;-0.46;100.00;100932.90;105760;1257;62526;-61
2023/12/11 10:23:11;;;;;;;10.60;5.20;;;;;;;-0.43;100.00;100930.49;105775;1252;77326;-61
2023/12/11 10:25:46;;;;;;;7.30;4.00;;;;;;;-0.39;100.00;100929.36;105939;1251;68950;-64
2023/12/11 10:28:16;;;;;;;7.20;4.00;;;;;;;-0.36;100.00;100926.98;105957;1251;75608;-63
2023/12/11 10:30:47;;;;;;;7.30;4.30;;;;;;;-0.35;100.00;100926.71;105773;1251;63728;-63
2023/12/11 10:33:16;;;;;;;8.70;3.80;;;;;;;-0.36;100.00;100927.83;106020;1251;60393;-63
2023/12/11 10:35:45;;;;;;;10.40;4.70;;;;;;;-0.35;100.00;100925.73;105950;1250;75299;-62
2023/12/11 10:38:21;;;;;;;6.60;3.80;;;;;;;-0.34;100.00;100924.08;106101;1254;66947;-63
2023/12/11 10:40:51;;;;;;;7.20;4.50;;;;;;;-0.32;100.00;100921.91;106005;1251;72628;-61
2023/12/11 10:43:20;;;;;;;6.30;3.30;;;;;;;-0.31;100.00;100916.91;106259;1255;60526;-63
2023/12/11 10:45:48;;;;;;;8.60;3.90;;;;;;;-0.33;100.00;100913.08;105802;1251;61884;-62
2023/12/11 10:48:21;;;;;;;6.50;4.30;;;;;;;-0.34;100.00;100912.98;105923;1250;76293;-61
2023/12/11 10:50:50;;;;;;;8.70;4.30;;;;;;;-0.34;100.00;100911.31;105869;1257;66462;-61
2023/12/11 10:53:18;;;;;;;7.30;4.00;;;;;;;-0.34;100.00;100911.13;105878;1251;73646;-61
2023/12/11 10:55:47;;;;;;;8.00;4.50;;;;;;;-0.33;100.00;100906.27;105942;1250;62137;-62
2023/12/11 10:58:15;;;;;;;7.00;3.80;;;;;;;-0.34;100.00;100907.17;105930;1250;63237;-62
2023/12/11 11:00:43;;;;;;;8.00;4.60;;;;;;;-0.35;100.00;100907.10;106157;1251;76359;-61
2023/12/11 11:03:12;;;;;;;10.00;4.50;;;;;;;-0.35;100.00;100908.60;105932;1257;68112;-62
2023/12/11 11:05:40;;;;;;;8.20;4.00;;;;;;;-0.33;100.00;100909.88;106123;1253;71671;-62
2023/12/11 11:08:31;;;;;;;9.40;5.00;;;;;;;-0.32;100.00;100909.44;105790;1251;64282;-62
2023/12/11 11:11:02;;;;;;;12.40;6.60;;;;;;;-0.32;100.00;100906.72;106039;1251;63313;-62
2023/12/11 11:13:34;;;;;;;9.30;7.10;;;;;;;-0.29;100.00;100906.20;105857;1251;73877;-61
2023/12/11 11:16:03;;;;;;;11.90;7.20;;;;;;;-0.28;100.00;100907.31;105920;1251;69400;-61
2023/12/11 11:19:01;;;;;;;15.90;11.80;;;;;;;-0.26;100.00;100901.73;106010;1251;75568;-61
2023/12/11 11:21:29;;;;;;;40.50;26.00;;;;;;;-0.22;100.00;100897.41;106049;1256;62056;-64
2023/12/11 11:23:57;;;;;;;69.50;40.30;;;;;;;-0.23;100.00;100893.02;106118;1251;61444;-62
2023/12/11 11:26:33;;;;;;;23.20;15.10;;;;;;;-0.18;100.00;100895.95;106022;1250;72984;-63
2023/12/11 11:29:04;;;;;;;38.50;25.20;;;;;;;-0.16;100.00;100897.02;106043;1251;66929;-60
2023/12/11 11:31:49;;;;;;;14.20;10.00;;;;;;;-0.16;100.00;100893.23;105738;1251;76050;-60
2023/12/11 11:34:40;;;;;;;14.50;7.70;;;;;;;-0.13;100.00;100892.56;106059;1253;60540;-61
2023/12/11 11:37:17;;;;;;;11.60;6.80;;;;;;;-0.12;100.00;100882.39;106078;1251;60564;-61
2023/12/11 11:39:56;;;;;;;10.50;6.90;;;;;;;-0.15;100.00;100883.44;105829;1249;76891;-65
2023/12/11 11:42:30;;;;;;;12.60;6.50;;;;;;;-0.16;100.00;100882.16;106008;1254;69176;-61
2023/12/11 11:44:59;;;;;;;15.20;9.60;;;;;;;-0.17;100.00;100875.75;105783;1251;76001;-61
2023/12/11 11:47:27;;;;;;;14.40;7.60;;;;;;;-0.19;100.00;100873.47;105844;1257;64407;-66
2023/12/11 11:50:09;;;;;;;10.60;7.50;;;;;;;-0.17;100.00;100872.30;105808;1257;61531;-62
2023/12/11 11:52:45;;;;;;;10.80;7.90;;;;;;;-0.16;100.00;100870.19;106189;1251;76512;-62